Time;durP1;ratioP1;P1;durP2;ratioP2;P2;SDS_P1;SDS_P2;PMS_P1;PMS_P2;Temp;Humidity;BMP_temperature;BMP_pressure;BME280_temperature;BME280_humidity;BME280_pressure;Samples;Min_cycle;Max_cycle;Signal;HPM_P1;HPM_P2
2023/06/24 00:01:29;;;;;;;14.73;9.97;;;;;;;17.03;84.63;101633.19;4989431;28;20462;-74
2023/06/24 00:03:55;;;;;;;18.23;10.33;;;;;;;17.04;84.77;101632.09;4989208;28;20228;-73
2023/06/24 00:06:25;;;;;;;17.73;9.60;;;;;;;17.04;84.83;101632.09;4990119;28;20201;-73
2023/06/24 00:09:00;;;;;;;15.93;10.00;;;;;;;17.03;84.81;101629.75;4989107;28;20232;-73
2023/06/24 00:11:27;;;;;;;16.10;10.63;;;;;;;17.05;84.94;101636.28;4991685;28;20232;-74
2023/06/24 00:13:53;;;;;;;15.30;10.40;;;;;;;17.07;85.02;101635.97;4989831;28;20219;-74
2023/06/24 00:16:25;;;;;;;15.23;10.60;;;;;;;17.06;84.93;101631.72;4987014;28;20422;-74
2023/06/24 00:18:52;;;;;;;15.60;10.60;;;;;;;17.08;85.00;101634.84;4987416;28;20209;-74
2023/06/24 00:21:19;;;;;;;15.20;10.37;;;;;;;17.09;85.09;101629.16;4986120;28;20252;-75
2023/06/24 00:23:49;;;;;;;14.17;9.53;;;;;;;17.09;85.11;101631.03;4984680;28;20209;-73
2023/06/24 00:26:16;;;;;;;18.30;11.00;;;;;;;17.11;85.11;101628.78;4990916;28;20245;-73
2023/06/24 00:28:42;;;;;;;14.67;9.63;;;;;;;17.13;85.19;101629.25;4985692;28;20217;-74
2023/06/24 00:31:11;;;;;;;16.13;10.87;;;;;;;17.14;85.10;101625.44;4986612;28;20233;-73
2023/06/24 00:33:38;;;;;;;16.57;10.40;;;;;;;17.14;85.01;101631.56;4980512;28;20228;-74
2023/06/24 00:36:08;;;;;;;13.73;10.47;;;;;;;17.15;85.01;101627.78;4974517;28;20857;-75
2023/06/24 00:38:35;;;;;;;16.83;11.23;;;;;;;17.15;84.99;101635.00;4978888;28;20220;-74
2023/06/24 00:41:03;;;;;;;21.07;12.10;;;;;;;17.15;85.07;101629.66;4982062;28;20231;-75
2023/06/24 00:43:30;;;;;;;15.17;10.40;;;;;;;17.16;85.00;101633.88;4981881;28;20278;-74
2023/06/24 00:45:57;;;;;;;12.23;9.07;;;;;;;17.18;84.92;101637.00;4979390;28;20530;-74
2023/06/24 00:48:24;;;;;;;17.00;10.73;;;;;;;17.15;84.95;101633.13;4971209;28;20236;-74
2023/06/24 00:50:50;;;;;;;17.17;11.13;;;;;;;17.15;84.84;101629.66;4969065;28;20237;-73
2023/06/24 00:53:17;;;;;;;13.90;10.23;;;;;;;17.17;84.95;101630.88;4974668;28;20225;-74
2023/06/24 00:55:45;;;;;;;16.87;10.77;;;;;;;17.18;84.86;101619.06;4966406;28;20201;-74
2023/06/24 00:58:15;;;;;;;19.87;11.17;;;;;;;17.19;84.92;101617.19;4962988;28;20232;-74
2023/06/24 01:00:43;;;;;;;18.83;10.87;;;;;;;17.18;84.92;101632.41;4969164;28;20235;-73
2023/06/24 01:03:13;;;;;;;16.00;10.53;;;;;;;17.18;84.96;101623.66;4980407;28;20205;-74
2023/06/24 01:05:41;;;;;;;17.03;10.23;;;;;;;17.19;84.90;101625.94;4975147;28;20240;-74
2023/06/24 01:08:07;;;;;;;18.87;11.03;;;;;;;17.19;84.86;101625.94;4972653;28;20208;-75
2023/06/24 01:10:34;;;;;;;14.73;10.20;;;;;;;17.20;84.88;101629.41;4971834;28;20876;-75
2023/06/24 01:13:01;;;;;;;16.10;9.90;;;;;;;17.21;85.00;101622.94;4970892;28;20217;-74
2023/06/24 01:15:29;;;;;;;26.23;11.80;;;;;;;17.22;84.91;101619.16;4974569;28;20308;-75
2023/06/24 01:18:02;;;;;;;16.53;11.10;;;;;;;17.22;84.99;101627.16;4991494;28;20486;-73
2023/06/24 01:20:33;;;;;;;16.73;9.83;;;;;;;17.21;84.86;101618.41;4975306;28;20264;-75
2023/06/24 01:23:38;;;;;;;14.43;10.53;;;;;;;17.23;84.95;101618.06;4971988;28;20672;-75
2023/06/24 01:26:21;;;;;;;15.73;10.70;;;;;;;17.23;84.79;101621.47;4974198;28;20232;-74
2023/06/24 01:29:30;;;;;;;17.27;11.50;;;;;;;17.22;84.76;101608.47;4973161;28;20597;-74
2023/06/24 01:32:00;;;;;;;25.40;12.17;;;;;;;17.21;84.95;101607.72;4973251;28;20235;-74
2023/06/24 01:34:33;;;;;;;16.47;11.07;;;;;;;17.21;84.80;101606.94;4969984;28;20587;-74
2023/06/24 01:37:09;;;;;;;18.20;11.37;;;;;;;17.19;84.74;101601.94;4970577;28;20208;-75
2023/06/24 01:39:39;;;;;;;16.30;10.77;;;;;;;17.19;84.76;101615.28;4972455;28;20213;-74
2023/06/24 01:42:10;;;;;;;18.80;10.97;;;;;;;17.16;84.62;101602.63;4971097;28;20582;-75
2023/06/24 01:44:40;;;;;;;18.47;11.43;;;;;;;17.15;84.70;101616.31;4972303;28;20248;-74
2023/06/24 01:47:10;;;;;;;17.93;11.10;;;;;;;17.15;84.74;101619.00;4972138;28;20292;-73
2023/06/24 01:49:40;;;;;;;16.83;10.63;;;;;;;17.14;84.85;101618.22;4968616;28;20197;-74
2023/06/24 01:52:09;;;;;;;15.07;10.20;;;;;;;17.13;84.85;101619.31;4966103;28;20312;-74
2023/06/24 01:54:37;;;;;;;17.80;11.47;;;;;;;17.12;84.88;101625.78;4963782;28;20224;-74
2023/06/24 01:57:06;;;;;;;14.03;10.53;;;;;;;17.12;84.82;101628.47;4972618;28;20201;-74
2023/06/24 01:59:34;;;;;;;20.07;10.87;;;;;;;17.12;84.81;101627.69;4974088;28;20218;-74
2023/06/24 02:02:01;;;;;;;17.57;10.63;;;;;;;17.14;84.95;101631.56;4970192;28;20233;-74
2023/06/24 02:04:31;;;;;;;18.47;11.23;;;;;;;17.12;85.04;101628.47;4974401;28;20220;-74
2023/06/24 02:07:00;;;;;;;15.53;10.53;;;;;;;17.14;84.58;101625.44;4971079;28;20715;-74
2023/06/24 02:09:28;;;;;;;17.07;11.53;;;;;;;17.15;84.85;101624.31;4968952;28;20663;-74
2023/06/24 02:11:56;;;;;;;15.70;10.60;;;;;;;17.14;84.78;101625.44;4970769;28;20236;-75
2023/06/24 02:14:23;;;;;;;14.33;10.53;;;;;;;17.14;84.79;101631.56;4970183;28;20212;-74
2023/06/24 02:16:56;;;;;;;19.83;11.70;;;;;;;17.16;84.78;101634.66;4989339;28;20210;-74
2023/06/24 02:19:24;;;;;;;16.33;10.47;;;;;;;17.18;84.78;101629.75;4969067;28;20262;-74
2023/06/24 02:21:53;;;;;;;21.13;10.63;;;;;;;17.20;84.94;101634.75;4968246;28;20233;-74
2023/06/24 02:24:22;;;;;;;17.93;10.73;;;;;;;17.21;84.94;101634.41;4972221;28;20493;-73
2023/06/24 02:26:49;;;;;;;16.40;10.87;;;;;;;17.23;85.04;101634.06;4969544;28;20201;-74
2023/06/24 02:29:15;;;;;;;21.97;12.20;;;;;;;17.22;84.93;101641.28;4961328;28;20223;-74
2023/06/24 02:31:43;;;;;;;20.07;10.77;;;;;;;17.24;84.96;101646.28;4968800;28;20233;-74
2023/06/24 02:34:10;;;;;;;22.77;11.23;;;;;;;17.23;85.20;101642.09;4986295;28;20209;-74
2023/06/24 02:36:36;;;;;;;18.70;11.00;;;;;;;17.24;84.75;101647.06;4965617;28;20305;-74
2023/06/24 02:39:04;;;;;;;19.40;11.27;;;;;;;17.25;84.73;101634.50;4973949;28;20205;-74
2023/06/24 02:41:31;;;;;;;15.50;10.50;;;;;;;17.25;84.70;101631.81;4974023;28;20228;-74
2023/06/24 02:43:57;;;;;;;16.73;11.47;;;;;;;17.26;84.79;101638.72;4964834;28;20223;-74
2023/06/24 02:46:29;;;;;;;16.40;10.20;;;;;;;17.28;84.83;101633.81;4970044;28;20251;-74
2023/06/24 02:48:57;;;;;;;12.70;9.60;;;;;;;17.28;84.64;101639.16;4969818;28;20209;-74
2023/06/24 02:51:25;;;;;;;14.70;10.10;;;;;;;17.27;84.68;101635.69;4969958;28;20242;-74
2023/06/24 02:53:52;;;;;;;15.47;10.33;;;;;;;17.28;84.65;101644.50;4971824;28;20304;-74
2023/06/24 02:56:25;;;;;;;20.20;12.13;;;;;;;17.27;84.59;101641.03;4985333;28;20208;-74
2023/06/24 02:58:53;;;;;;;18.63;12.27;;;;;;;17.29;84.72;101646.03;4969330;28;20212;-74
2023/06/24 03:01:25;;;;;;;21.30;12.17;;;;;;;17.27;84.65;101637.59;4974176;28;20222;-73
2023/06/24 03:03:55;;;;;;;14.97;10.37;;;;;;;17.28;84.53;101636.50;4970135;28;20216;-73
2023/06/24 03:06:23;;;;;;;19.70;10.00;;;;;;;17.24;84.40;101641.72;4968026;28;20209;-73
2023/06/24 03:08:50;;;;;;;15.87;11.47;;;;;;;17.23;84.38;101642.09;4967607;28;20637;-73
2023/06/24 03:11:19;;;;;;;17.60;10.27;;;;;;;17.20;84.50;101638.22;4967147;28;20235;-73
2023/06/24 03:13:47;;;;;;;19.70;11.50;;;;;;;17.17;84.31;101643.44;4966662;28;20206;-73
2023/06/24 03:16:22;;;;;;;15.67;10.17;;;;;;;17.13;84.44;101643.34;4970937;28;20289;-73
2023/06/24 03:19:12;;;;;;;15.23;10.47;;;;;;;17.10;84.42;101637.94;4967065;28;20213;-73
2023/06/24 03:21:38;;;;;;;13.47;10.13;;;;;;;17.04;84.35;101641.97;4971350;28;20229;-73
2023/06/24 03:24:11;;;;;;;16.53;10.37;;;;;;;16.99;84.21;101629.66;4988048;28;20303;-73
2023/06/24 03:26:40;;;;;;;19.80;10.77;;;;;;;16.96;84.30;101643.69;4974398;28;20264;-72
2023/06/24 03:29:11;;;;;;;16.10;10.20;;;;;;;16.93;84.42;101632.91;4974143;28;20771;-73
2023/06/24 03:31:43;;;;;;;17.60;11.27;;;;;;;16.87;84.33;101644.97;4969386;28;20279;-73
2023/06/24 03:34:11;;;;;;;15.10;9.97;;;;;;;16.84;84.32;101654.41;4989520;28;20208;-74
2023/06/24 03:36:38;;;;;;;14.53;11.10;;;;;;;16.79;84.39;101656.53;4970627;28;21393;-72
2023/06/24 03:39:06;;;;;;;14.90;11.03;;;;;;;16.77;84.24;101653.47;4973807;28;20205;-73
2023/06/24 03:41:33;;;;;;;14.07;10.90;;;;;;;16.75;84.47;101658.34;4974654;28;20225;-73
2023/06/24 03:43:59;;;;;;;16.43;11.27;;;;;;;16.74;84.46;101654.13;4971068;28;20360;-74
2023/06/24 03:46:32;;;;;;;17.47;11.13;;;;;;;16.73;84.67;101657.91;4971468;28;20263;-73
2023/06/24 03:49:00;;;;;;;18.07;12.20;;;;;;;16.71;85.01;101654.81;4973998;28;20675;-73
2023/06/24 03:51:27;;;;;;;18.60;11.40;;;;;;;16.73;85.07;101655.25;4985660;28;20235;-73
2023/06/24 03:53:53;;;;;;;20.27;12.97;;;;;;;16.76;85.03;101655.34;4974514;28;20678;-73
2023/06/24 03:56:20;;;;;;;19.83;12.90;;;;;;;16.77;85.25;101656.13;4971877;28;20222;-73
2023/06/24 03:58:46;;;;;;;22.10;14.33;;;;;;;16.79;84.92;101660.00;4972978;28;20299;-73
2023/06/24 04:01:13;;;;;;;24.30;13.23;;;;;;;16.82;85.32;101661.97;4976662;28;20713;-73
2023/06/24 04:03:41;;;;;;;22.63;15.13;;;;;;;16.86;85.49;101670.09;4972229;28;20314;-73
2023/06/24 04:06:08;;;;;;;25.37;14.90;;;;;;;16.91;85.51;101670.59;4981108;28;20226;-74
2023/06/24 04:08:34;;;;;;;24.23;15.40;;;;;;;16.96;85.58;101673.03;4972326;28;20323;-73
2023/06/24 04:11:03;;;;;;;32.73;16.37;;;;;;;17.02;85.66;101678.91;4970922;28;20724;-73
2023/06/24 04:13:29;;;;;;;34.20;19.03;;;;;;;17.05;85.69;101668.31;4971733;28;20359;-74
2023/06/24 04:15:56;;;;;;;31.37;16.87;;;;;;;17.12;85.82;101671.16;4976392;28;21903;-73
2023/06/24 04:18:22;;;;;;;30.87;17.77;;;;;;;17.21;85.81;101679.78;4971575;28;20224;-73
2023/06/24 04:20:50;;;;;;;36.97;19.77;;;;;;;17.28;86.01;101679.19;4975780;28;20641;-73
2023/06/24 04:23:16;;;;;;;40.37;21.00;;;;;;;17.35;86.08;101687.38;4969719;28;20212;-73
2023/06/24 04:25:44;;;;;;;41.20;20.37;;;;;;;17.39;86.01;101685.59;4968712;28;20917;-73
2023/06/24 04:28:10;;;;;;;41.80;21.77;;;;;;;17.45;85.95;101684.22;4978722;28;20479;-74
2023/06/24 04:30:38;;;;;;;45.97;22.80;;;;;;;17.52;85.88;101687.06;4975825;28;20237;-74
2023/06/24 04:33:05;;;;;;;40.23;22.10;;;;;;;17.59;85.78;101681.91;4972334;28;20208;-73
2023/06/24 04:35:32;;;;;;;37.37;22.13;;;;;;;17.65;85.49;101691.97;4965788;28;20227;-73
2023/06/24 04:38:00;;;;;;;46.10;23.40;;;;;;;17.70;85.41;101697.06;4974063;28;20655;-73
2023/06/24 04:40:26;;;;;;;38.90;21.43;;;;;;;17.74;85.15;101699.81;4974120;28;20229;-74
2023/06/24 04:42:52;;;;;;;38.60;20.83;;;;;;;17.75;84.72;101701.38;4977229;28;20217;-73
2023/06/24 04:45:19;;;;;;;34.90;21.47;;;;;;;17.75;84.48;101709.38;4975388;28;20211;-73
2023/06/24 04:47:45;;;;;;;42.27;22.63;;;;;;;17.75;84.43;101706.72;4973930;28;20220;-73
2023/06/24 04:50:11;;;;;;;37.67;22.13;;;;;;;17.79;84.39;101711.00;4973418;28;20727;-73
2023/06/24 04:52:38;;;;;;;35.73;22.90;;;;;;;17.83;84.34;101713.75;4972263;28;20579;-73
2023/06/24 04:55:07;;;;;;;35.77;22.33;;;;;;;17.84;84.17;101709.97;4974822;28;20208;-73
2023/06/24 04:57:34;;;;;;;39.13;22.20;;;;;;;17.83;84.05;101708.41;4970522;28;20193;-73
2023/06/24 05:00:00;;;;;;;38.77;22.57;;;;;;;17.86;84.47;101719.19;4975008;28;20201;-73
2023/06/24 05:02:27;;;;;;;42.27;24.10;;;;;;;17.87;84.35;101720.75;4968708;28;20206;-73
2023/06/24 05:04:53;;;;;;;36.37;21.97;;;;;;;17.91;84.20;101726.19;4974237;28;20205;-73
2023/06/24 05:07:20;;;;;;;38.77;22.77;;;;;;;17.94;83.88;101728.94;4971367;28;20626;-73
2023/06/24 05:09:47;;;;;;;32.67;21.47;;;;;;;17.93;83.72;101727.38;4968332;28;20209;-73
2023/06/24 05:12:15;;;;;;;38.60;23.60;;;;;;;17.94;83.46;101734.28;4974959;28;20209;-73
2023/06/24 05:14:41;;;;;;;35.07;22.67;;;;;;;17.99;83.64;101730.56;4967062;28;20465;-73
2023/06/24 05:17:08;;;;;;;35.10;22.97;;;;;;;18.06;84.02;101726.16;4973832;28;20201;-73
2023/06/24 05:19:34;;;;;;;37.17;23.47;;;;;;;18.14;83.79;101729.75;4969898;28;20209;-73
2023/06/24 05:22:00;;;;;;;38.53;23.17;;;;;;;18.22;83.60;101734.16;4975359;28;20232;-73
2023/06/24 05:24:27;;;;;;;35.63;22.43;;;;;;;18.26;82.55;101729.66;4971898;28;20201;-73
2023/06/24 05:26:53;;;;;;;37.00;22.93;;;;;;;18.35;82.64;101725.69;4967736;28;20243;-73
2023/06/24 05:29:21;;;;;;;43.20;25.07;;;;;;;18.46;82.69;101724.00;4968755;28;20207;-72
2023/06/24 05:31:47;;;;;;;44.37;24.67;;;;;;;18.59;82.90;101725.44;4967544;28;20515;-73
2023/06/24 05:34:14;;;;;;;47.83;26.73;;;;;;;18.67;81.98;101721.78;4973530;28;20205;-73
2023/06/24 05:36:40;;;;;;;40.47;25.67;;;;;;;18.71;80.95;101719.94;4975850;28;20686;-72
2023/06/24 05:39:07;;;;;;;45.17;27.43;;;;;;;18.84;81.72;101731.28;4984062;28;20224;-73
2023/06/24 05:41:34;;;;;;;45.50;27.07;;;;;;;18.92;81.58;101733.75;4970586;28;20222;-73
2023/06/24 05:44:05;;;;;;;44.37;26.57;;;;;;;19.05;81.59;101726.34;4969735;28;20265;-73
2023/06/24 05:46:33;;;;;;;44.13;26.67;;;;;;;19.15;80.62;101726.53;4969984;28;20223;-73
2023/06/24 05:48:59;;;;;;;46.57;27.40;;;;;;;19.25;80.38;101722.53;4969406;28;20201;-73
2023/06/24 05:51:26;;;;;;;45.13;26.97;;;;;;;19.34;80.23;101733.78;4970059;28;20759;-72
2023/06/24 05:53:52;;;;;;;42.10;25.00;;;;;;;19.34;78.80;101729.22;4966197;28;20216;-71
2023/06/24 05:56:19;;;;;;;35.33;23.60;;;;;;;19.38;79.03;101735.41;4967426;28;20583;-73
2023/06/24 05:58:46;;;;;;;34.83;23.73;;;;;;;19.42;79.08;101738.13;4965656;28;20212;-72
2023/06/24 06:01:12;;;;;;;33.47;22.63;;;;;;;19.42;79.15;101733.56;4970969;28;20232;-73
2023/06/24 06:03:40;;;;;;;36.47;21.63;;;;;;;19.42;78.36;101738.94;4968066;28;20210;-72
2023/06/24 06:06:06;;;;;;;30.10;21.13;;;;;;;19.38;77.24;101737.28;4970274;28;20232;-72
2023/06/24 06:08:33;;;;;;;28.23;19.50;;;;;;;19.39;77.60;101747.66;4969485;28;20220;-71
2023/06/24 06:11:01;;;;;;;30.47;18.43;;;;;;;19.37;76.63;101736.53;4962475;28;20816;-73
2023/06/24 06:13:28;;;;;;;24.33;17.73;;;;;;;19.43;76.79;101740.47;4962198;28;20292;-72
2023/06/24 06:15:54;;;;;;;24.17;16.97;;;;;;;19.42;76.76;101738.94;4964034;28;20212;-72
2023/06/24 06:18:20;;;;;;;27.40;21.73;;;;;;;19.44;76.69;101731.28;4964748;28;20213;-71
2023/06/24 06:20:48;;;;;;;21.80;15.83;;;;;;;19.50;77.08;101737.16;4963044;28;20773;-71
2023/06/24 06:23:16;;;;;;;20.07;16.30;;;;;;;19.56;77.89;101741.81;4970583;28;20730;-72
2023/06/24 06:25:43;;;;;;;19.07;12.90;;;;;;;19.54;75.99;101738.75;4966650;28;20211;-72
2023/06/24 06:28:09;;;;;;;16.20;13.40;;;;;;;19.56;76.31;101730.34;4963611;28;21203;-72
2023/06/24 06:30:36;;;;;;;15.87;13.43;;;;;;;19.52;76.43;101732.19;4969143;28;20241;-72
2023/06/24 06:33:02;;;;;;;16.43;12.50;;;;;;;19.47;76.72;101729.81;4965678;28;20690;-72
2023/06/24 06:35:28;;;;;;;15.10;11.10;;;;;;;19.46;76.21;101731.69;4969890;28;20209;-72
2023/06/24 06:37:58;;;;;;;13.77;10.80;;;;;;;19.45;77.58;101740.88;4967895;28;20225;-72
2023/06/24 06:40:24;;;;;;;13.70;12.30;;;;;;;19.46;77.55;101742.41;4972165;28;20239;-72
2023/06/24 06:42:51;;;;;;;18.73;13.63;;;;;;;19.51;78.40;101746.72;4968016;28;20221;-72
2023/06/24 06:45:17;;;;;;;18.53;13.23;;;;;;;19.54;77.23;101746.00;4975798;28;20212;-71
2023/06/24 06:47:43;;;;;;;15.07;13.10;;;;;;;19.61;77.96;101744.22;4959399;28;20225;-71
2023/06/24 06:50:10;;;;;;;15.37;12.60;;;;;;;19.60;76.07;101755.28;4969733;28;20239;-72
2023/06/24 06:52:38;;;;;;;14.23;11.70;;;;;;;19.62;76.27;101751.09;4966099;28;20213;-72
2023/06/24 06:55:06;;;;;;;14.27;11.73;;;;;;;19.65;76.04;101744.25;4960879;28;20391;-72
2023/06/24 06:57:32;;;;;;;17.93;12.37;;;;;;;19.75;75.77;101746.34;4971000;28;20653;-72
2023/06/24 06:59:59;;;;;;;13.90;11.20;;;;;;;19.78;77.63;101762.50;4974565;28;20257;-72
2023/06/24 07:02:25;;;;;;;14.40;10.50;;;;;;;19.74;75.17;101761.66;4981117;28;20295;-71
2023/06/24 07:04:51;;;;;;;11.97;10.43;;;;;;;19.84;75.70;101760.28;4978243;28;20209;-72
2023/06/24 07:07:18;;;;;;;12.47;10.00;;;;;;;19.86;74.75;101761.47;4977880;28;20216;-72
2023/06/24 07:09:46;;;;;;;12.73;10.57;;;;;;;19.87;74.59;101767.63;4984477;28;20209;-72
2023/06/24 07:12:14;;;;;;;11.77;9.73;;;;;;;19.88;73.93;101761.88;4985061;28;20212;-72
2023/06/24 07:14:40;;;;;;;12.70;10.37;;;;;;;19.83;75.39;101762.22;4980111;28;20303;-71
2023/06/24 07:17:08;;;;;;;13.07;10.67;;;;;;;19.84;73.38;101763.75;4973947;28;20209;-72
2023/06/24 07:19:34;;;;;;;15.23;11.13;;;;;;;19.82;73.08;101759.88;4980537;28;20201;-71
2023/06/24 07:22:00;;;;;;;10.97;9.50;;;;;;;19.88;74.97;101769.16;4975466;28;20599;-72
2023/06/24 07:24:26;;;;;;;13.87;10.10;;;;;;;19.93;74.25;101772.28;4971062;28;20699;-72
2023/06/24 07:26:53;;;;;;;12.03;10.23;;;;;;;19.99;74.87;101764.75;4975458;28;20221;-71
2023/06/24 07:29:21;;;;;;;12.80;9.50;;;;;;;19.99;74.03;101778.16;4974024;28;20205;-72
2023/06/24 07:31:47;;;;;;;10.80;9.63;;;;;;;20.06;72.60;101776.34;4978686;28;20240;-72
2023/06/24 07:34:13;;;;;;;11.80;9.77;;;;;;;20.18;73.90;101781.53;4979082;28;20846;-72
2023/06/24 07:36:40;;;;;;;12.53;9.83;;;;;;;20.29;75.34;101774.41;4979831;28;20213;-72
2023/06/24 07:39:06;;;;;;;13.93;9.80;;;;;;;20.32;73.24;101778.28;4975559;28;20293;-72
2023/06/24 07:41:33;;;;;;;10.70;8.80;;;;;;;20.37;72.36;101770.72;4980668;28;20711;-72
2023/06/24 07:43:59;;;;;;;12.10;8.17;;;;;;;20.45;72.02;101774.25;4977527;28;20580;-72
2023/06/24 07:46:27;;;;;;;10.27;9.00;;;;;;;20.48;70.86;101773.53;4978756;28;20239;-72
2023/06/24 07:48:54;;;;;;;11.43;8.93;;;;;;;20.51;71.97;101770.91;4978265;28;20212;-72
2023/06/24 07:51:20;;;;;;;12.47;8.60;;;;;;;20.57;72.08;101764.09;4979821;28;20735;-71
2023/06/24 07:53:47;;;;;;;15.13;9.80;;;;;;;20.69;73.39;101765.78;4972647;28;20214;-72
2023/06/24 07:56:13;;;;;;;11.27;9.53;;;;;;;20.75;72.62;101761.63;4977099;28;20212;-71
2023/06/24 07:58:39;;;;;;;9.27;8.33;;;;;;;20.77;70.42;101762.81;4973902;28;20214;-72
2023/06/24 08:01:06;;;;;;;10.83;8.93;;;;;;;20.74;71.10;101757.41;4973400;28;20229;-72
2023/06/24 08:03:34;;;;;;;15.17;9.47;;;;;;;20.76;71.31;101761.28;4976914;28;20427;-72
2023/06/24 08:06:00;;;;;;;11.00;9.17;;;;;;;20.77;70.99;101760.13;4975458;28;20202;-72
2023/06/24 08:08:27;;;;;;;11.27;9.40;;;;;;;20.81;71.63;101757.47;4979324;28;20221;-72
2023/06/24 08:10:53;;;;;;;9.93;8.37;;;;;;;20.80;70.32;101758.63;4976067;28;20261;-72
2023/06/24 08:13:19;;;;;;;11.70;8.53;;;;;;;20.78;70.15;101753.59;4979606;28;20209;-71
2023/06/24 08:15:46;;;;;;;9.97;8.30;;;;;;;20.87;71.36;101764.06;4979798;28;20213;-72
2023/06/24 08:18:13;;;;;;;10.03;8.50;;;;;;;20.88;67.37;101766.38;4973179;28;20210;-72
2023/06/24 08:20:40;;;;;;;10.10;8.43;;;;;;;20.95;69.56;101761.13;4975310;28;20240;-72
2023/06/24 08:23:07;;;;;;;9.47;7.10;;;;;;;21.05;69.67;101760.47;4970086;28;20706;-72
2023/06/24 08:25:33;;;;;;;9.70;7.90;;;;;;;21.10;70.78;101760.13;4972048;28;20205;-72
2023/06/24 08:27:59;;;;;;;11.57;8.47;;;;;;;21.16;69.08;101764.03;4976629;28;20222;-72
2023/06/24 08:30:26;;;;;;;9.43;8.33;;;;;;;21.22;69.49;101765.25;4971725;28;20230;-72
2023/06/24 08:32:53;;;;;;;9.43;8.03;;;;;;;21.28;69.43;101769.16;4972812;28;20205;-72
2023/06/24 08:35:19;;;;;;;9.47;8.10;;;;;;;21.34;69.64;101777.66;4977265;28;20214;-72
2023/06/24 08:37:47;;;;;;;9.13;8.00;;;;;;;21.21;70.14;101781.75;4977083;28;20216;-72
2023/06/24 08:40:13;;;;;;;9.37;7.97;;;;;;;21.22;69.65;101778.69;4975185;28;20645;-72
2023/06/24 08:42:39;;;;;;;10.50;7.50;;;;;;;21.23;66.80;101792.91;4977999;28;20217;-73
2023/06/24 08:45:07;;;;;;;8.93;7.37;;;;;;;21.23;67.42;101782.94;4971586;28;20602;-71
2023/06/24 08:47:34;;;;;;;10.20;7.40;;;;;;;21.32;68.47;101791.47;4975845;28;20213;-72
2023/06/24 08:50:04;;;;;;;10.87;8.23;;;;;;;21.39;67.62;101788.84;4974613;28;20587;-72
2023/06/24 08:52:33;;;;;;;8.50;6.97;;;;;;;21.49;67.82;101788.19;4977416;28;20256;-72
2023/06/24 08:55:02;;;;;;;8.27;7.33;;;;;;;21.67;68.93;101783.75;4972316;28;20202;-73
2023/06/24 08:57:29;;;;;;;8.73;7.77;;;;;;;21.79;65.66;101782.72;4978800;28;20213;-71
2023/06/24 08:59:55;;;;;;;12.00;7.70;;;;;;;21.80;64.95;101785.06;4971145;28;20518;-73
2023/06/24 09:02:22;;;;;;;9.10;7.83;;;;;;;21.83;65.97;101795.03;4968121;28;20315;-73
2023/06/24 09:04:48;;;;;;;10.13;7.50;;;;;;;21.90;67.16;101792.44;4970017;28;20213;-72
2023/06/24 09:07:24;;;;;;;8.60;7.70;;;;;;;21.93;64.04;101791.66;4974041;28;20516;-73
2023/06/24 09:09:50;;;;;;;10.10;8.70;;;;;;;21.90;64.05;101791.66;4974219;28;20316;-72
2023/06/24 09:12:18;;;;;;;10.00;7.90;;;;;;;21.90;65.77;101789.75;4973647;28;20216;-73
2023/06/24 09:14:49;;;;;;;10.67;7.80;;;;;;;21.89;64.91;101795.50;4976571;28;20204;-73
2023/06/24 09:17:15;;;;;;;9.57;8.50;;;;;;;21.95;65.68;101789.41;4971801;28;20216;-73
2023/06/24 09:19:42;;;;;;;9.80;7.87;;;;;;;22.03;66.23;101800.97;4974122;28;20739;-73
2023/06/24 09:22:16;;;;;;;13.03;8.90;;;;;;;21.95;64.98;101794.00;4975829;28;20227;-73
2023/06/24 09:24:42;;;;;;;8.83;7.90;;;;;;;21.97;67.35;101797.84;4977260;28;20220;-72
2023/06/24 09:27:09;;;;;;;9.93;8.20;;;;;;;22.00;66.19;101801.72;4972429;28;20580;-72
2023/06/24 09:29:36;;;;;;;11.33;9.07;;;;;;;22.12;66.41;101801.41;4970089;28;20548;-72
2023/06/24 09:32:05;;;;;;;10.40;8.43;;;;;;;22.13;64.18;101806.44;4973221;28;20228;-73
2023/06/24 09:34:32;;;;;;;10.27;8.40;;;;;;;22.10;63.81;101801.78;4977483;28;20197;-73
2023/06/24 09:36:59;;;;;;;12.27;8.10;;;;;;;22.07;65.95;101807.13;4973719;28;20216;-72
2023/06/24 09:39:29;;;;;;;10.33;8.23;;;;;;;22.06;65.81;101802.91;4975156;28;20206;-73
2023/06/24 09:41:55;;;;;;;9.60;8.60;;;;;;;22.03;64.56;101809.81;4971329;28;20268;-73
2023/06/24 09:44:22;;;;;;;9.17;8.07;;;;;;;22.02;64.03;101807.50;4973302;28;20291;-72
2023/06/24 09:46:49;;;;;;;11.03;8.50;;;;;;;22.10;63.90;101809.09;4973789;28;20202;-72
2023/06/24 09:49:16;;;;;;;10.03;7.90;;;;;;;22.22;65.04;101808.78;4971548;28;20212;-72
2023/06/24 09:51:45;;;;;;;9.93;7.83;;;;;;;22.37;64.95;101813.13;4974196;28;20228;-73
2023/06/24 09:54:15;;;;;;;9.97;8.10;;;;;;;22.52;63.71;101802.13;4976411;28;20606;-73
2023/06/24 09:56:44;;;;;;;10.63;7.93;;;;;;;22.70;64.88;101811.03;4972975;28;20215;-72
2023/06/24 09:59:13;;;;;;;10.32;7.88;;;;;;;22.75;60.52;101802.59;4975450;28;20223;-72
2023/06/24 10:01:40;;;;;;;8.73;7.53;;;;;;;22.78;61.47;101809.94;4974508;28;20387;-72
2023/06/24 10:04:09;;;;;;;9.02;7.05;;;;;;;22.63;58.16;101802.16;4974417;28;20208;-73
2023/06/24 10:06:35;;;;;;;7.93;6.45;;;;;;;22.69;60.38;101808.72;4979091;28;20263;-72
2023/06/24 10:09:02;;;;;;;6.97;6.28;;;;;;;22.61;58.99;101805.22;4966734;28;20221;-72
2023/06/24 10:11:29;;;;;;;10.02;6.75;;;;;;;22.62;61.27;101806.75;4976951;28;20617;-72
2023/06/24 10:13:55;;;;;;;6.80;5.95;;;;;;;22.63;60.83;101802.16;4972974;28;20698;-73
2023/06/24 10:16:23;;;;;;;8.23;6.60;;;;;;;22.68;61.78;101812.56;4972664;28;20297;-71
2023/06/24 10:18:49;;;;;;;6.80;6.10;;;;;;;22.78;61.25;101809.16;4979306;28;20205;-72
2023/06/24 10:21:17;;;;;;;6.35;5.75;;;;;;;22.86;60.37;101802.66;4969531;28;20581;-72
2023/06/24 10:23:53;;;;;;;7.43;5.75;;;;;;;22.83;60.14;101795.31;4969199;28;20568;-72
2023/06/24 10:26:25;;;;;;;7.53;6.18;;;;;;;22.73;59.12;101791.44;4968170;28;20641;-72
2023/06/24 10:29:10;;;;;;;7.55;6.20;;;;;;;22.79;59.02;101789.94;4971302;28;20225;-72
2023/06/24 10:31:52;;;;;;;7.55;5.85;;;;;;;22.87;59.38;101786.09;4972492;28;20840;-70
2023/06/24 10:34:25;;;;;;;8.03;6.40;;;;;;;22.93;59.13;101783.81;4976541;28;20701;-71
2023/06/24 10:36:56;;;;;;;9.63;6.40;;;;;;;23.04;58.56;101779.25;4974801;28;20228;-72
2023/06/24 10:39:49;;;;;;;6.90;6.03;;;;;;;23.06;59.89;101793.88;4973328;28;20213;-72
2023/06/24 10:42:34;;;;;;;6.88;5.85;;;;;;;22.82;54.97;101789.16;4977647;28;20204;-71
2023/06/24 10:45:02;;;;;;;9.50;5.80;;;;;;;22.75;58.00;101786.44;4972176;28;20280;-72
2023/06/24 10:47:29;;;;;;;8.18;6.05;;;;;;;22.65;57.94;101783.69;4972937;28;20229;-72
2023/06/24 10:49:56;;;;;;;6.18;5.55;;;;;;;22.67;58.29;101782.16;4971379;28;20694;-72
2023/06/24 10:52:24;;;;;;;6.20;5.43;;;;;;;22.74;60.17;101779.53;4977043;28;20208;-72
2023/06/24 10:54:53;;;;;;;10.95;6.25;;;;;;;22.80;58.96;101783.38;4972547;28;20214;-72
2023/06/24 10:57:24;;;;;;;6.55;5.32;;;;;;;22.89;58.65;101778.44;4971682;28;20695;-72
2023/06/24 10:59:51;;;;;;;7.00;5.37;;;;;;;22.96;56.83;101772.28;4971772;28;20334;-72
2023/06/24 11:02:19;;;;;;;8.63;5.03;;;;;;;22.99;57.54;101777.69;4971148;28;20210;-72
2023/06/24 11:04:46;;;;;;;5.93;5.33;;;;;;;23.03;62.51;101770.38;4974507;28;20295;-72
2023/06/24 11:07:12;;;;;;;6.88;5.78;;;;;;;23.09;56.23;101766.19;4974149;28;20604;-72
2023/06/24 11:09:41;;;;;;;7.43;5.57;;;;;;;23.12;58.11;101762.72;4977560;28;20605;-72
2023/06/24 11:12:10;;;;;;;5.93;5.33;;;;;;;23.21;58.32;101756.97;4977106;28;20728;-71
2023/06/24 11:14:36;;;;;;;6.47;5.30;;;;;;;23.28;58.47;101762.41;4976501;28;20284;-72
2023/06/24 11:17:04;;;;;;;5.53;4.50;;;;;;;23.28;57.07;101762.41;4974411;28;20225;-72
2023/06/24 11:19:30;;;;;;;7.32;4.95;;;;;;;23.34;56.22;101764.31;4973239;28;20201;-72